sensor_id;sensor_type;location;lat;lon;timestamp;temperature;humidity
24232;DHT22;12364;47.810;8.810;2023-10-31T04:48:01;12.80;94.90
24232;DHT22;12364;47.810;8.810;2023-10-31T04:50:28;12.80;95.10
24232;DHT22;12364;47.810;8.810;2023-10-31T04:52:55;13.00;95.20
24232;DHT22;12364;47.810;8.810;2023-10-31T04:55:22;12.80;95.00
24232;DHT22;12364;47.810;8.810;2023-10-31T04:57:49;12.80;95.20
24232;DHT22;12364;47.810;8.810;2023-10-31T05:00:16;12.90;95.80
24232;DHT22;12364;47.810;8.810;2023-10-31T05:02:43;13.00;95.20
24232;DHT22;12364;47.810;8.810;2023-10-31T05:05:10;13.00;95.00
24232;DHT22;12364;47.810;8.810;2023-10-31T05:07:37;13.10;95.20
24232;DHT22;12364;47.810;8.810;2023-10-31T05:10:04;13.10;94.70
24232;DHT22;12364;47.810;8.810;2023-10-31T05:12:32;13.00;94.90
24232;DHT22;12364;47.810;8.810;2023-10-31T05:14:59;13.00;94.80
24232;DHT22;12364;47.810;8.810;2023-10-31T05:17:26;12.90;95.20
24232;DHT22;12364;47.810;8.810;2023-10-31T05:19:53;12.90;95.40
24232;DHT22;12364;47.810;8.810;2023-10-31T05:22:20;12.80;95.60
24232;DHT22;12364;47.810;8.810;2023-10-31T05:24:51;12.80;95.70
24232;DHT22;12364;47.810;8.810;2023-10-31T05:27:18;12.70;95.80
24232;DHT22;12364;47.810;8.810;2023-10-31T05:29:45;12.70;96.00
24232;DHT22;12364;47.810;8.810;2023-10-31T05:32:12;12.80;95.90
24232;DHT22;12364;47.810;8.810;2023-10-31T05:34:39;12.70;95.80
24232;DHT22;12364;47.810;8.810;2023-10-31T05:37:06;13.00;96.00
24232;DHT22;12364;47.810;8.810;2023-10-31T05:39:33;12.80;96.00
24232;DHT22;12364;47.810;8.810;2023-10-31T05:42:00;12.90;95.80
24232;DHT22;12364;47.810;8.810;2023-10-31T05:44:27;12.90;95.80
24232;DHT22;12364;47.810;8.810;2023-10-31T05:46:54;12.90;95.80
24232;DHT22;12364;47.810;8.810;2023-10-31T05:49:21;12.90;95.80
24232;DHT22;12364;47.810;8.810;2023-10-31T05:51:51;13.00;96.00
24232;DHT22;12364;47.810;8.810;2023-10-31T05:54:18;12.80;96.00
24232;DHT22;12364;47.810;8.810;2023-10-31T05:56:46;12.80;95.90
24232;DHT22;12364;47.810;8.810;2023-10-31T05:59:13;12.80;95.90
24232;DHT22;12364;47.810;8.810;2023-10-31T06:01:40;12.80;96.10
24232;DHT22;12364;47.810;8.810;2023-10-31T06:04:07;12.90;95.80
24232;DHT22;12364;47.810;8.810;2023-10-31T06:06:37;12.90;95.90
24232;DHT22;12364;47.810;8.810;2023-10-31T06:09:04;13.00;95.90
24232;DHT22;12364;47.810;8.810;2023-10-31T06:11:31;13.00;95.70
24232;DHT22;12364;47.810;8.810;2023-10-31T06:13:58;12.90;95.50
24232;DHT22;12364;47.810;8.810;2023-10-31T06:16:26;12.80;95.90
24232;DHT22;12364;47.810;8.810;2023-10-31T06:18:53;12.90;96.00
24232;DHT22;12364;47.810;8.810;2023-10-31T06:21:20;12.90;95.60
24232;DHT22;12364;47.810;8.810;2023-10-31T06:23:47;12.80;96.10
24232;DHT22;12364;47.810;8.810;2023-10-31T06:26:14;12.90;96.10
24232;DHT22;12364;47.810;8.810;2023-10-31T06:28:41;13.00;96.10
24232;DHT22;12364;47.810;8.810;2023-10-31T06:31:23;13.00;96.00
24232;DHT22;12364;47.810;8.810;2023-10-31T06:33:50;13.10;96.10
24232;DHT22;12364;47.810;8.810;2023-10-31T06:36:17;13.20;96.00
24232;DHT22;12364;47.810;8.810;2023-10-31T06:38:44;13.10;96.00
24232;DHT22;12364;47.810;8.810;2023-10-31T06:41:11;13.10;95.90
24232;DHT22;12364;47.810;8.810;2023-10-31T06:43:38;13.10;95.90
24232;DHT22;12364;47.810;8.810;2023-10-31T06:46:05;13.10;96.20
24232;DHT22;12364;47.810;8.810;2023-10-31T06:48:33;13.10;95.80
24232;DHT22;12364;47.810;8.810;2023-10-31T06:51:00;13.10;95.80
24232;DHT22;12364;47.810;8.810;2023-10-31T06:53:27;13.10;95.70
24232;DHT22;12364;47.810;8.810;2023-10-31T06:55:54;13.10;96.00
24232;DHT22;12364;47.810;8.810;2023-10-31T06:58:21;13.20;96.00
24232;DHT22;12364;47.810;8.810;2023-10-31T07:00:48;13.20;95.90
24232;DHT22;12364;47.810;8.810;2023-10-31T07:03:15;13.20;95.60
24232;DHT22;12364;47.810;8.810;2023-10-31T07:05:43;13.20;95.80
24232;DHT22;12364;47.810;8.810;2023-10-31T07:08:10;13.10;95.70
24232;DHT22;12364;47.810;8.810;2023-10-31T07:10:37;13.10;95.80
24232;DHT22;12364;47.810;8.810;2023-10-31T07:13:04;13.10;95.80
24232;DHT22;12364;47.810;8.810;2023-10-31T07:15:31;13.30;95.90
24232;DHT22;12364;47.810;8.810;2023-10-31T07:17:58;13.10;95.80
24232;DHT22;12364;47.810;8.810;2023-10-31T07:20:25;13.20;96.00
24232;DHT22;12364;47.810;8.810;2023-10-31T07:22:52;13.20;95.70
24232;DHT22;12364;47.810;8.810;2023-10-31T07:25:19;13.20;95.80
24232;DHT22;12364;47.810;8.810;2023-10-31T07:27:46;13.30;96.10
24232;DHT22;12364;47.810;8.810;2023-10-31T07:30:13;13.30;96.00
24232;DHT22;12364;47.810;8.810;2023-10-31T07:32:41;13.30;95.80
24232;DHT22;12364;47.810;8.810;2023-10-31T07:35:08;13.30;95.60
24232;DHT22;12364;47.810;8.810;2023-10-31T07:37:35;13.30;95.90
24232;DHT22;12364;47.810;8.810;2023-10-31T07:40:03;13.30;96.30
24232;DHT22;12364;47.810;8.810;2023-10-31T07:42:31;13.30;96.20
24232;DHT22;12364;47.810;8.810;2023-10-31T07:44:58;13.30;96.30
24232;DHT22;12364;47.810;8.810;2023-10-31T07:47:25;13.30;96.30
24232;DHT22;12364;47.810;8.810;2023-10-31T07:49:52;13.40;96.50
24232;DHT22;12364;47.810;8.810;2023-10-31T07:52:20;13.40;96.40
24232;DHT22;12364;47.810;8.810;2023-10-31T07:54:47;13.40;96.30
24232;DHT22;12364;47.810;8.810;2023-10-31T07:57:14;13.40;96.20
24232;DHT22;12364;47.810;8.810;2023-10-31T07:59:41;13.40;96.30
24232;DHT22;12364;47.810;8.810;2023-10-31T08:02:08;13.40;96.70
24232;DHT22;12364;47.810;8.810;2023-10-31T08:04:35;13.40;96.90
24232;DHT22;12364;47.810;8.810;2023-10-31T08:07:02;13.50;96.50
24232;DHT22;12364;47.810;8.810;2023-10-31T08:09:29;13.40;96.40
24232;DHT22;12364;47.810;8.810;2023-10-31T08:11:56;13.60;96.60
24232;DHT22;12364;47.810;8.810;2023-10-31T08:14:23;13.50;96.90
24232;DHT22;12364;47.810;8.810;2023-10-31T08:16:52;13.50;97.00
24232;DHT22;12364;47.810;8.810;2023-10-31T08:19:19;13.50;96.90
24232;DHT22;12364;47.810;8.810;2023-10-31T08:21:46;13.40;96.70
24232;DHT22;12364;47.810;8.810;2023-10-31T08:24:13;13.40;97.10
24232;DHT22;12364;47.810;8.810;2023-10-31T08:26:40;13.40;97.10
24232;DHT22;12364;47.810;8.810;2023-10-31T08:29:07;13.40;97.00
24232;DHT22;12364;47.810;8.810;2023-10-31T08:31:34;13.40;96.80
24232;DHT22;12364;47.810;8.810;2023-10-31T08:34:01;13.40;97.10
24232;DHT22;12364;47.810;8.810;2023-10-31T08:36:29;13.40;97.70
24232;DHT22;12364;47.810;8.810;2023-10-31T08:38:56;13.40;97.90
24232;DHT22;12364;47.810;8.810;2023-10-31T08:41:23;13.40;98.00
24232;DHT22;12364;47.810;8.810;2023-10-31T08:43:50;13.40;98.00
24232;DHT22;12364;47.810;8.810;2023-10-31T08:46:17;13.40;98.30
24232;DHT22;12364;47.810;8.810;2023-10-31T08:48:44;13.50;98.50
24232;DHT22;12364;47.810;8.810;2023-10-31T08:51:11;13.50;98.30
24232;DHT22;12364;47.810;8.810;2023-10-31T08:53:38;13.50;98.60
24232;DHT22;12364;47.810;8.810;2023-10-31T08:56:05;13.60;98.40
24232;DHT22;12364;47.810;8.810;2023-10-31T08:58:32;13.60;97.80
24232;DHT22;12364;47.810;8.810;2023-10-31T09:00:59;13.60;98.20
24232;DHT22;12364;47.810;8.810;2023-10-31T09:03:26;13.60;98.00
24232;DHT22;12364;47.810;8.810;2023-10-31T09:05:53;13.70;98.30
24232;DHT22;12364;47.810;8.810;2023-10-31T09:08:21;13.80;97.70
24232;DHT22;12364;47.810;8.810;2023-10-31T09:10:48;13.70;97.90
24232;DHT22;12364;47.810;8.810;2023-10-31T09:13:15;13.80;97.70
24232;DHT22;12364;47.810;8.810;2023-10-31T09:15:42;13.80;97.70
24232;DHT22;12364;47.810;8.810;2023-10-31T09:18:09;13.70;97.70
24232;DHT22;12364;47.810;8.810;2023-10-31T09:20:36;13.80;97.80
24232;DHT22;12364;47.810;8.810;2023-10-31T09:23:03;13.70;97.60
24232;DHT22;12364;47.810;8.810;2023-10-31T09:25:30;13.70;97.90
24232;DHT22;12364;47.810;8.810;2023-10-31T09:27:57;13.80;97.70
24232;DHT22;12364;47.810;8.810;2023-10-31T09:30:26;13.80;97.20
24232;DHT22;12364;47.810;8.810;2023-10-31T09:32:53;13.80;97.60
24232;DHT22;12364;47.810;8.810;2023-10-31T09:35:20;13.80;97.80
24232;DHT22;12364;47.810;8.810;2023-10-31T09:37:48;13.90;97.90
24232;DHT22;12364;47.810;8.810;2023-10-31T09:40:18;13.90;97.80
24232;DHT22;12364;47.810;8.810;2023-10-31T09:42:45;13.90;97.90
24232;DHT22;12364;47.810;8.810;2023-10-31T09:45:13;13.90;97.30
24232;DHT22;12364;47.810;8.810;2023-10-31T09:47:40;13.90;97.50
24232;DHT22;12364;47.810;8.810;2023-10-31T09:50:08;13.90;97.60
24232;DHT22;12364;47.810;8.810;2023-10-31T09:52:36;13.80;97.40
24232;DHT22;12364;47.810;8.810;2023-10-31T09:55:03;13.70;97.60
24232;DHT22;12364;47.810;8.810;2023-10-31T09:57:31;13.70;97.70
24232;DHT22;12364;47.810;8.810;2023-10-31T09:59:58;13.60;97.60
24232;DHT22;12364;47.810;8.810;2023-10-31T10:02:26;13.60;97.60
24232;DHT22;12364;47.810;8.810;2023-10-31T10:04:53;13.70;97.70
24232;DHT22;12364;47.810;8.810;2023-10-31T10:07:20;13.80;97.90
24232;DHT22;12364;47.810;8.810;2023-10-31T10:09:47;13.80;97.60
24232;DHT22;12364;47.810;8.810;2023-10-31T10:12:15;14.00;97.90
24232;DHT22;12364;47.810;8.810;2023-10-31T10:14:44;13.90;97.60
24232;DHT22;12364;47.810;8.810;2023-10-31T10:17:20;13.90;97.50
24232;DHT22;12364;47.810;8.810;2023-10-31T10:20:04;13.90;97.40
24232;DHT22;12364;47.810;8.810;2023-10-31T10:22:31;13.90;97.30
24232;DHT22;12364;47.810;8.810;2023-10-31T10:24:58;13.90;97.50
24232;DHT22;12364;47.810;8.810;2023-10-31T10:27:25;14.00;97.80
24232;DHT22;12364;47.810;8.810;2023-10-31T10:29:52;14.00;97.60
24232;DHT22;12364;47.810;8.810;2023-10-31T10:32:19;14.10;97.50
24232;DHT22;12364;47.810;8.810;2023-10-31T10:34:47;14.20;97.40
24232;DHT22;12364;47.810;8.810;2023-10-31T10:37:14;14.30;97.50
24232;DHT22;12364;47.810;8.810;2023-10-31T10:39:41;14.40;97.60
24232;DHT22;12364;47.810;8.810;2023-10-31T10:42:10;14.40;97.20
24232;DHT22;12364;47.810;8.810;2023-10-31T10:44:38;14.30;97.30
24232;DHT22;12364;47.810;8.810;2023-10-31T10:47:09;14.20;97.20
24232;DHT22;12364;47.810;8.810;2023-10-31T10:49:39;14.20;97.50
24232;DHT22;12364;47.810;8.810;2023-10-31T10:52:16;14.30;97.50
24232;DHT22;12364;47.810;8.810;2023-10-31T10:54:54;14.30;97.50
24232;DHT22;12364;47.810;8.810;2023-10-31T10:59:55;14.30;97.30
24232;DHT22;12364;47.810;8.810;2023-10-31T11:02:24;14.30;97.50
24232;DHT22;12364;47.810;8.810;2023-10-31T11:04:51;14.40;97.50
24232;DHT22;12364;47.810;8.810;2023-10-31T11:07:18;14.50;97.40
24232;DHT22;12364;47.810;8.810;2023-10-31T11:09:47;14.50;96.90
24232;DHT22;12364;47.810;8.810;2023-10-31T11:12:14;14.60;96.60
24232;DHT22;12364;47.810;8.810;2023-10-31T11:14:42;14.60;96.70
24232;DHT22;12364;47.810;8.810;2023-10-31T11:17:11;14.60;96.90
24232;DHT22;12364;47.810;8.810;2023-10-31T11:19:41;14.70;97.00
24232;DHT22;12364;47.810;8.810;2023-10-31T11:22:08;14.80;96.80
24232;DHT22;12364;47.810;8.810;2023-10-31T11:24:37;14.70;96.70
24232;DHT22;12364;47.810;8.810;2023-10-31T11:27:05;14.70;96.40
24232;DHT22;12364;47.810;8.810;2023-10-31T11:29:33;14.80;96.40
24232;DHT22;12364;47.810;8.810;2023-10-31T11:32:01;14.80;96.40
24232;DHT22;12364;47.810;8.810;2023-10-31T11:34:31;14.80;96.40
24232;DHT22;12364;47.810;8.810;2023-10-31T11:42:31;14.70;96.50
24232;DHT22;12364;47.810;8.810;2023-10-31T11:44:58;14.70;96.50
24232;DHT22;12364;47.810;8.810;2023-10-31T11:47:25;14.70;96.40
24232;DHT22;12364;47.810;8.810;2023-10-31T11:49:52;14.70;96.40
24232;DHT22;12364;47.810;8.810;2023-10-31T11:52:19;14.80;96.50
24232;DHT22;12364;47.810;8.810;2023-10-31T11:54:46;14.90;96.40
24232;DHT22;12364;47.810;8.810;2023-10-31T11:57:28;14.90;96.60
24232;DHT22;12364;47.810;8.810;2023-10-31T11:59:56;14.90;96.40
24232;DHT22;12364;47.810;8.810;2023-10-31T12:02:23;14.90;96.30
24232;DHT22;12364;47.810;8.810;2023-10-31T12:04:50;14.90;96.20
24232;DHT22;12364;47.810;8.810;2023-10-31T12:07:18;14.90;96.40
24232;DHT22;12364;47.810;8.810;2023-10-31T12:09:46;14.90;96.70
24232;DHT22;12364;47.810;8.810;2023-10-31T12:12:14;14.90;96.30
24232;DHT22;12364;47.810;8.810;2023-10-31T12:14:41;14.90;96.30
24232;DHT22;12364;47.810;8.810;2023-10-31T12:17:08;15.00;96.40
24232;DHT22;12364;47.810;8.810;2023-10-31T12:19:36;15.10;96.40
24232;DHT22;12364;47.810;8.810;2023-10-31T12:22:11;15.00;96.30
24232;DHT22;12364;47.810;8.810;2023-10-31T12:24:38;15.00;96.00
24232;DHT22;12364;47.810;8.810;2023-10-31T12:27:05;15.00;96.60
24232;DHT22;12364;47.810;8.810;2023-10-31T12:29:32;15.00;96.20
24232;DHT22;12364;47.810;8.810;2023-10-31T12:31:59;15.00;96.20
24232;DHT22;12364;47.810;8.810;2023-10-31T12:34:27;15.10;96.20
24232;DHT22;12364;47.810;8.810;2023-10-31T12:36:54;14.90;95.90
24232;DHT22;12364;47.810;8.810;2023-10-31T12:39:22;14.90;96.20
24232;DHT22;12364;47.810;8.810;2023-10-31T12:41:49;14.90;96.10
24232;DHT22;12364;47.810;8.810;2023-10-31T12:44:18;15.00;95.90
24232;DHT22;12364;47.810;8.810;2023-10-31T12:46:47;15.10;96.10
24232;DHT22;12364;47.810;8.810;2023-10-31T12:49:18;15.10;95.70
24232;DHT22;12364;47.810;8.810;2023-10-31T12:51:54;15.10;95.80
24232;DHT22;12364;47.810;8.810;2023-10-31T12:54:31;15.10;95.80
24232;DHT22;12364;47.810;8.810;2023-10-31T12:56:59;15.10;95.40
24232;DHT22;12364;47.810;8.810;2023-10-31T12:59:26;15.10;95.50
24232;DHT22;12364;47.810;8.810;2023-10-31T13:01:53;15.00;95.20
24232;DHT22;12364;47.810;8.810;2023-10-31T13:04:24;15.10;95.40
24232;DHT22;12364;47.810;8.810;2023-10-31T13:06:58;15.10;95.40
24232;DHT22;12364;47.810;8.810;2023-10-31T13:09:43;15.10;95.50
24232;DHT22;12364;47.810;8.810;2023-10-31T13:12:10;15.10;95.80
24232;DHT22;12364;47.810;8.810;2023-10-31T13:14:38;15.10;95.90
24232;DHT22;12364;47.810;8.810;2023-10-31T13:17:06;15.10;95.90
24232;DHT22;12364;47.810;8.810;2023-10-31T13:19:33;15.10;96.30
24232;DHT22;12364;47.810;8.810;2023-10-31T13:22:00;15.10;96.50
24232;DHT22;12364;47.810;8.810;2023-10-31T13:24:27;15.10;96.90
24232;DHT22;12364;47.810;8.810;2023-10-31T13:26:54;15.10;96.90
24232;DHT22;12364;47.810;8.810;2023-10-31T13:29:21;15.10;97.00
24232;DHT22;12364;47.810;8.810;2023-10-31T13:31:48;15.10;97.20
24232;DHT22;12364;47.810;8.810;2023-10-31T13:34:16;15.00;97.40
24232;DHT22;12364;47.810;8.810;2023-10-31T13:36:43;15.00;97.60
24232;DHT22;12364;47.810;8.810;2023-10-31T13:39:11;15.00;97.70
24232;DHT22;12364;47.810;8.810;2023-10-31T13:41:38;15.00;97.80
24232;DHT22;12364;47.810;8.810;2023-10-31T13:44:05;15.00;98.00
24232;DHT22;12364;47.810;8.810;2023-10-31T13:46:32;15.00;97.80
24232;DHT22;12364;47.810;8.810;2023-10-31T13:48:59;15.00;97.80
24232;DHT22;12364;47.810;8.810;2023-10-31T13:51:26;15.00;97.80
24232;DHT22;12364;47.810;8.810;2023-10-31T13:53:53;15.00;97.90
24232;DHT22;12364;47.810;8.810;2023-10-31T13:56:20;15.00;97.70
24232;DHT22;12364;47.810;8.810;2023-10-31T13:58:47;15.00;97.90
24232;DHT22;12364;47.810;8.810;2023-10-31T14:01:15;15.00;97.60
24232;DHT22;12364;47.810;8.810;2023-10-31T14:03:42;15.00;98.00
24232;DHT22;12364;47.810;8.810;2023-10-31T14:06:11;15.00;97.80
24232;DHT22;12364;47.810;8.810;2023-10-31T14:08:39;14.90;97.80
24232;DHT22;12364;47.810;8.810;2023-10-31T14:11:06;14.90;97.90
24232;DHT22;12364;47.810;8.810;2023-10-31T14:13:35;14.90;98.30
24232;DHT22;12364;47.810;8.810;2023-10-31T14:16:02;14.90;98.30
24232;DHT22;12364;47.810;8.810;2023-10-31T14:18:29;14.90;98.20
24232;DHT22;12364;47.810;8.810;2023-10-31T14:20:57;14.90;98.00
24232;DHT22;12364;47.810;8.810;2023-10-31T14:23:24;14.90;97.90
24232;DHT22;12364;47.810;8.810;2023-10-31T14:25:51;14.90;98.20
24232;DHT22;12364;47.810;8.810;2023-10-31T14:28:19;14.90;98.30
24232;DHT22;12364;47.810;8.810;2023-10-31T14:30:46;14.90;98.20
24232;DHT22;12364;47.810;8.810;2023-10-31T14:33:13;14.80;98.30
24232;DHT22;12364;47.810;8.810;2023-10-31T14:35:40;14.90;98.30
24232;DHT22;12364;47.810;8.810;2023-10-31T14:38:07;14.80;98.50
24232;DHT22;12364;47.810;8.810;2023-10-31T14:40:34;14.80;98.60
24232;DHT22;12364;47.810;8.810;2023-10-31T14:43:01;14.80;98.50
24232;DHT22;12364;47.810;8.810;2023-10-31T14:45:28;14.70;98.50
24232;DHT22;12364;47.810;8.810;2023-10-31T14:47:56;14.90;98.70
24232;DHT22;12364;47.810;8.810;2023-10-31T14:50:23;14.80;98.70
24232;DHT22;12364;47.810;8.810;2023-10-31T14:52:50;14.80;98.50
24232;DHT22;12364;47.810;8.810;2023-10-31T14:55:17;14.80;98.70
24232;DHT22;12364;47.810;8.810;2023-10-31T14:57:44;14.80;98.80
24232;DHT22;12364;47.810;8.810;2023-10-31T15:00:12;14.80;98.80
24232;DHT22;12364;47.810;8.810;2023-10-31T15:02:40;14.70;98.70
24232;DHT22;12364;47.810;8.810;2023-10-31T15:05:08;14.80;98.80
24232;DHT22;12364;47.810;8.810;2023-10-31T15:07:35;14.70;99.20
24232;DHT22;12364;47.810;8.810;2023-10-31T15:10:02;14.70;99.30
24232;DHT22;12364;47.810;8.810;2023-10-31T15:12:30;14.70;99.10
24232;DHT22;12364;47.810;8.810;2023-10-31T15:14:57;14.70;98.90
24232;DHT22;12364;47.810;8.810;2023-10-31T15:17:24;14.70;98.90
24232;DHT22;12364;47.810;8.810;2023-10-31T15:19:51;14.80;98.90
24232;DHT22;12364;47.810;8.810;2023-10-31T15:22:18;14.80;98.90
24232;DHT22;12364;47.810;8.810;2023-10-31T15:24:45;14.70;98.90
24232;DHT22;12364;47.810;8.810;2023-10-31T15:27:12;14.70;98.60
24232;DHT22;12364;47.810;8.810;2023-10-31T15:29:44;14.70;98.70
24232;DHT22;12364;47.810;8.810;2023-10-31T15:32:11;14.60;98.90
24232;DHT22;12364;47.810;8.810;2023-10-31T15:34:39;14.60;99.00
24232;DHT22;12364;47.810;8.810;2023-10-31T15:37:08;14.60;99.10
24232;DHT22;12364;47.810;8.810;2023-10-31T15:39:35;14.50;99.00
24232;DHT22;12364;47.810;8.810;2023-10-31T15:42:02;14.50;99.20
24232;DHT22;12364;47.810;8.810;2023-10-31T15:44:29;14.50;99.00
24232;DHT22;12364;47.810;8.810;2023-10-31T15:46:56;14.40;99.10
24232;DHT22;12364;47.810;8.810;2023-10-31T15:49:23;14.40;98.80
24232;DHT22;12364;47.810;8.810;2023-10-31T15:51:50;14.30;98.80
24232;DHT22;12364;47.810;8.810;2023-10-31T15:54:17;14.20;99.20
24232;DHT22;12364;47.810;8.810;2023-10-31T15:56:44;14.10;99.30
24232;DHT22;12364;47.810;8.810;2023-10-31T15:59:12;14.10;99.40
24232;DHT22;12364;47.810;8.810;2023-10-31T16:01:39;14.00;98.90
24232;DHT22;12364;47.810;8.810;2023-10-31T16:04:06;13.90;99.20
24232;DHT22;12364;47.810;8.810;2023-10-31T16:06:33;13.80;99.30
24232;DHT22;12364;47.810;8.810;2023-10-31T16:09:00;13.90;99.80
24232;DHT22;12364;47.810;8.810;2023-10-31T16:11:27;13.90;99.30
24232;DHT22;12364;47.810;8.810;2023-10-31T16:13:54;13.80;99.00
24232;DHT22;12364;47.810;8.810;2023-10-31T16:16:21;13.60;99.30
24232;DHT22;12364;47.810;8.810;2023-10-31T16:18:48;13.60;99.90
24232;DHT22;12364;47.810;8.810;2023-10-31T16:21:16;13.50;99.90
24232;DHT22;12364;47.810;8.810;2023-10-31T16:23:43;13.50;99.70
24232;DHT22;12364;47.810;8.810;2023-10-31T16:26:13;13.80;99.90
24232;DHT22;12364;47.810;8.810;2023-10-31T16:28:41;13.70;99.60
24232;DHT22;12364;47.810;8.810;2023-10-31T16:31:08;13.70;99.40
24232;DHT22;12364;47.810;8.810;2023-10-31T16:33:36;13.80;99.30
24232;DHT22;12364;47.810;8.810;2023-10-31T16:36:03;13.90;99.20
24232;DHT22;12364;47.810;8.810;2023-10-31T16:38:31;13.80;99.20
24232;DHT22;12364;47.810;8.810;2023-10-31T16:41:00;13.70;99.10
24232;DHT22;12364;47.810;8.810;2023-10-31T16:43:31;13.70;99.20
24232;DHT22;12364;47.810;8.810;2023-10-31T16:45:58;13.70;99.00
24232;DHT22;12364;47.810;8.810;2023-10-31T16:48:25;13.50;99.40
24232;DHT22;12364;47.810;8.810;2023-10-31T16:50:52;13.60;99.90
24232;DHT22;12364;47.810;8.810;2023-10-31T16:53:19;13.50;99.60
24232;DHT22;12364;47.810;8.810;2023-10-31T16:55:47;13.60;99.90
24232;DHT22;12364;47.810;8.810;2023-10-31T16:58:14;13.50;99.80
24232;DHT22;12364;47.810;8.810;2023-10-31T17:00:42;13.50;99.70
24232;DHT22;12364;47.810;8.810;2023-10-31T17:03:09;13.50;99.90
24232;DHT22;12364;47.810;8.810;2023-10-31T17:05:40;13.50;99.90
24232;DHT22;12364;47.810;8.810;2023-10-31T17:08:07;13.50;99.90
24232;DHT22;12364;47.810;8.810;2023-10-31T17:10:35;13.50;99.90
24232;DHT22;12364;47.810;8.810;2023-10-31T17:13:02;13.70;99.90
24232;DHT22;12364;47.810;8.810;2023-10-31T17:15:30;13.50;99.90
24232;DHT22;12364;47.810;8.810;2023-10-31T17:17:57;13.40;99.80
24232;DHT22;12364;47.810;8.810;2023-10-31T17:20:24;13.50;99.90
24232;DHT22;12364;47.810;8.810;2023-10-31T17:22:52;13.40;99.90
24232;DHT22;12364;47.810;8.810;2023-10-31T17:25:18;13.40;99.90
24232;DHT22;12364;47.810;8.810;2023-10-31T17:27:45;13.40;99.90
24232;DHT22;12364;47.810;8.810;2023-10-31T17:30:12;13.40;99.90
24232;DHT22;12364;47.810;8.810;2023-10-31T17:32:40;13.40;99.90
24232;DHT22;12364;47.810;8.810;2023-10-31T17:35:07;13.40;99.90
24232;DHT22;12364;47.810;8.810;2023-10-31T17:37:35;13.40;99.90
24232;DHT22;12364;47.810;8.810;2023-10-31T17:40:02;13.40;99.90
24232;DHT22;12364;47.810;8.810;2023-10-31T17:42:30;13.50;99.80
24232;DHT22;12364;47.810;8.810;2023-10-31T17:45:00;13.40;99.80
24232;DHT22;12364;47.810;8.810;2023-10-31T17:47:27;13.30;99.80
24232;DHT22;12364;47.810;8.810;2023-10-31T17:49:54;13.10;99.90
24232;DHT22;12364;47.810;8.810;2023-10-31T17:52:21;13.10;99.90
24232;DHT22;12364;47.810;8.810;2023-10-31T17:54:50;13.20;99.90
24232;DHT22;12364;47.810;8.810;2023-10-31T17:57:17;13.10;99.90
24232;DHT22;12364;47.810;8.810;2023-10-31T17:59:45;13.20;99.90
24232;DHT22;12364;47.810;8.810;2023-10-31T18:02:13;13.10;99.90
24232;DHT22;12364;47.810;8.810;2023-10-31T18:04:40;13.10;99.90
24232;DHT22;12364;47.810;8.810;2023-10-31T18:07:07;13.00;99.90
24232;DHT22;12364;47.810;8.810;2023-10-31T18:09:35;13.00;99.90
24232;DHT22;12364;47.810;8.810;2023-10-31T18:12:03;13.00;99.90
24232;DHT22;12364;47.810;8.810;2023-10-31T18:14:30;13.10;99.90
24232;DHT22;12364;47.810;8.810;2023-10-31T18:16:57;13.10;99.90
24232;DHT22;12364;47.810;8.810;2023-10-31T18:19:24;13.00;99.90
24232;DHT22;12364;47.810;8.810;2023-10-31T18:21:51;12.90;99.90
24232;DHT22;12364;47.810;8.810;2023-10-31T18:24:18;12.90;99.90
24232;DHT22;12364;47.810;8.810;2023-10-31T18:26:45;12.90;99.90
24232;DHT22;12364;47.810;8.810;2023-10-31T18:29:13;12.90;99.90
24232;DHT22;12364;47.810;8.810;2023-10-31T18:31:40;12.80;99.90
24232;DHT22;12364;47.810;8.810;2023-10-31T18:34:07;12.90;99.90
24232;DHT22;12364;47.810;8.810;2023-10-31T18:36:34;12.90;99.90
24232;DHT22;12364;47.810;8.810;2023-10-31T18:39:05;13.00;99.90
24232;DHT22;12364;47.810;8.810;2023-10-31T18:41:33;13.10;99.90
24232;DHT22;12364;47.810;8.810;2023-10-31T18:44:01;13.40;99.90
24232;DHT22;12364;47.810;8.810;2023-10-31T18:46:48;13.30;99.90
24232;DHT22;12364;47.810;8.810;2023-10-31T18:49:15;13.20;99.90
24232;DHT22;12364;47.810;8.810;2023-10-31T18:51:42;13.20;99.90
24232;DHT22;12364;47.810;8.810;2023-10-31T18:54:09;13.20;99.90
24232;DHT22;12364;47.810;8.810;2023-10-31T18:56:37;13.30;99.90
24232;DHT22;12364;47.810;8.810;2023-10-31T18:59:04;13.30;99.90
24232;DHT22;12364;47.810;8.810;2023-10-31T19:01:31;13.40;99.90
24232;DHT22;12364;47.810;8.810;2023-10-31T19:04:01;13.50;99.90
24232;DHT22;12364;47.810;8.810;2023-10-31T19:06:28;13.50;99.90
24232;DHT22;12364;47.810;8.810;2023-10-31T19:08:55;13.50;99.90
24232;DHT22;12364;47.810;8.810;2023-10-31T19:11:23;13.50;99.90
24232;DHT22;12364;47.810;8.810;2023-10-31T19:13:50;13.60;99.90
24232;DHT22;12364;47.810;8.810;2023-10-31T19:16:17;13.50;99.90
24232;DHT22;12364;47.810;8.810;2023-10-31T19:18:44;13.60;99.90
24232;DHT22;12364;47.810;8.810;2023-10-31T19:21:11;13.50;99.90
24232;DHT22;12364;47.810;8.810;2023-10-31T19:23:38;13.60;99.90
24232;DHT22;12364;47.810;8.810;2023-10-31T19:26:05;13.60;99.90
24232;DHT22;12364;47.810;8.810;2023-10-31T19:28:32;13.80;99.90
24232;DHT22;12364;47.810;8.810;2023-10-31T19:30:59;13.70;99.90
24232;DHT22;12364;47.810;8.810;2023-10-31T19:33:26;13.80;99.90
24232;DHT22;12364;47.810;8.810;2023-10-31T19:35:53;13.70;99.90
24232;DHT22;12364;47.810;8.810;2023-10-31T19:38:20;13.80;99.80
24232;DHT22;12364;47.810;8.810;2023-10-31T19:40:47;13.70;99.90
24232;DHT22;12364;47.810;8.810;2023-10-31T19:43:15;13.70;99.80
24232;DHT22;12364;47.810;8.810;2023-10-31T19:45:42;13.70;99.90
24232;DHT22;12364;47.810;8.810;2023-10-31T19:48:11;13.70;99.90
24232;DHT22;12364;47.810;8.810;2023-10-31T19:50:39;13.70;99.70
24232;DHT22;12364;47.810;8.810;2023-10-31T19:53:06;13.80;99.70
24232;DHT22;12364;47.810;8.810;2023-10-31T19:55:33;13.80;99.60
24232;DHT22;12364;47.810;8.810;2023-10-31T19:58:00;13.70;99.80
24232;DHT22;12364;47.810;8.810;2023-10-31T20:00:27;13.80;99.70
24232;DHT22;12364;47.810;8.810;2023-10-31T20:02:56;13.70;99.60
24232;DHT22;12364;47.810;8.810;2023-10-31T20:05:23;13.80;99.70
24232;DHT22;12364;47.810;8.810;2023-10-31T20:07:50;13.70;99.30
24232;DHT22;12364;47.810;8.810;2023-10-31T20:10:17;13.70;99.50
24232;DHT22;12364;47.810;8.810;2023-10-31T20:12:44;13.70;99.60
24232;DHT22;12364;47.810;8.810;2023-10-31T20:15:12;13.70;99.70
24232;DHT22;12364;47.810;8.810;2023-10-31T20:17:39;13.70;99.60
24232;DHT22;12364;47.810;8.810;2023-10-31T20:20:06;13.70;99.50
24232;DHT22;12364;47.810;8.810;2023-10-31T20:22:33;13.70;99.70
24232;DHT22;12364;47.810;8.810;2023-10-31T20:25:00;13.70;99.60
24232;DHT22;12364;47.810;8.810;2023-10-31T20:27:28;13.70;99.60